首页
METAR-TAF:

METAR-TAF

机场 :

卡尔加里国际机场

卡尔加里, 艾伯塔, 加拿大

纬度: 51-07N, 经度: 114-01W, 海拔: 1077米

当前天气观测

该预报发布于18分钟前的18:00 UTC
风速4节,风向
温度 20°C
湿度 43%
气压 1015 hPa
能見度: 1.6公里

METAR: CYYC 151800Z 36004KT 1SM R35L/P6000FT/N R29/P6000FT/N R35R/P6000FT/N FU VV028 20/07 A2997 RMK FU8 SLP134 DENSITY ALT 5000FT

时间: 12:18 (18:18 UTC)

预报

该预报发布于40分钟前的17:38 UTC
预报有效从15日的 18点(UTC)到 16日的 18点(UTC)
风速10节,风向西北
能見度: 1.2公里
层高于3000英尺
短暂存在
从 15日的 18点(UTC)到 15日的 20点(UTC)
能見度: 4.8公里
散云层高于4000英尺
多云层高于22000英尺
从 15日的 2000点(UTC)
风速10节,风向东转东北
能見度: 3.2公里
少量云层高于12000英尺
短暂存在
从 15日的 20点(UTC)到 16日的 06点(UTC)
能見度: 9.7公里
从 16日的 0600点(UTC)
风速5节,风向
能見度: 0.8公里
层高于3000英尺
短暂存在
从 16日的 06点(UTC)到 16日的 18点(UTC)
能見度: 3.2公里
散云层高于3000英尺
成为
从 16日的 10点(UTC)到 16日的 12点(UTC)
风速3节,风向多变

TAF: CYYC 151738Z 1518/1618 31010KT 3/4SM FU VV030 TEMPO 1518/1520 3SM FU SCT040 BKN220 FM152000 07010KT 2SM FU FEW120 TEMPO 1520/1606 6SM FU FM160600 35005KT 1/2SM FU VV030 TEMPO 1606/1618 2SM FU SCT030 BECMG 1610/1612 VRB03KT RMK NXT FCST BY 152100Z

超过4000个机场的气象观测和天气预报(METAR&TAF报告)。

可查询的气象台以黄色和红色小点在地图上表示。

将鼠标移到小点上方,可查看气象台名称。

然后点击查看天气观测和预报。

如需切换地图:点击带黑十字的绿色按钮放大地图;点击带横线的绿色按钮缩小地图;或者点击绿色箭头查看邻近地区的地图。


METAR-TAF: